Terminal Aerodrome Forecast
Issued by NWS Cleveland, OH

Home | Current Version | Previous Version | Text Only | Print | Product List | Glossary On
Versions: 1 2 3 4 5 6 7 8 9 10 11 12 13 14 15 16 17 18 19 20 21 22 23
725
FTUS41 KCLE 272339
TAFMFD
TAF
KMFD 272339Z 2800/2824 VRB04KT P6SM FEW030 BKN150
     FM280900 VRB03KT 6SM BR FEW150 SCT250
      TEMPO 2810/2813 3SM BR BKN008
     FM281500 21005KT P6SM SCT035 BKN200
     FM282300 34005KT P6SM FEW035 BKN150=

USA.gov is the U.S. government's official web portal to all federal, state and local government web resources and services.